createdAt,value
2022-09-04T00:29:55.142Z,1005.49
2022-09-04T00:30:35.671Z,1005.49
2022-09-04T00:31:16.114Z,1005.5
2022-09-04T00:31:56.569Z,1005.51
2022-09-04T00:32:37.049Z,1005.5
2022-09-04T00:33:17.584Z,1005.53
2022-09-04T00:34:38.460Z,1005.52
2022-09-04T00:35:18.948Z,1005.52
2022-09-04T00:35:59.445Z,1005.54
2022-09-04T00:36:39.998Z,1005.52
2022-09-04T00:37:20.407Z,1005.56
2022-09-04T00:38:00.914Z,1005.55
2022-09-04T00:38:41.407Z,1005.51
2022-09-04T00:39:21.938Z,1005.57
2022-09-04T00:40:02.470Z,1005.58
2022-09-04T00:40:42.872Z,1005.6
2022-09-04T00:41:23.352Z,1005.63
2022-09-04T00:42:03.830Z,1005.63
2022-09-04T00:42:44.290Z,1005.58
2022-09-04T00:43:24.795Z,1005.61
2022-09-04T00:44:05.291Z,1005.67
2022-09-04T00:44:45.806Z,1005.69
2022-09-04T00:45:26.262Z,1005.63
2022-09-04T00:46:06.805Z,1005.66
2022-09-04T00:46:47.285Z,1005.61
2022-09-04T00:47:27.760Z,1005.61
2022-09-04T00:48:08.248Z,1005.59
2022-09-04T00:48:48.770Z,1005.6
2022-09-04T00:49:29.383Z,1005.6
2022-09-04T00:50:09.868Z,1005.59
2022-09-04T00:50:51.090Z,1005.63
2022-09-04T00:51:30.864Z,1005.64
2022-09-04T00:52:11.359Z,1005.63
2022-09-04T00:52:53.647Z,1005.66
2022-09-04T00:53:32.281Z,1005.65
2022-09-04T00:54:12.745Z,1005.66
2022-09-04T00:54:53.257Z,1005.69
2022-09-04T00:55:33.713Z,1005.64
2022-09-04T00:56:14.221Z,1005.69
2022-09-04T00:56:54.708Z,1005.67
2022-09-04T00:57:35.159Z,1005.66
2022-09-04T00:58:15.643Z,1005.62
2022-09-04T00:59:36.529Z,1005.67
2022-09-04T01:00:17.078Z,1005.63
2022-09-04T01:00:57.680Z,1005.66
2022-09-04T01:01:38.730Z,1005.67
2022-09-04T01:02:18.622Z,1005.68
2022-09-04T01:02:58.933Z,1005.71
2022-09-04T01:03:39.468Z,1005.71
2022-09-04T01:04:19.934Z,1005.7
2022-09-04T01:05:00.420Z,1005.71
2022-09-04T01:05:40.904Z,1005.73
2022-09-04T01:06:21.430Z,1005.75
2022-09-04T01:07:01.902Z,1005.77
2022-09-04T01:07:42.374Z,1005.79
2022-09-04T01:08:22.842Z,1005.77
2022-09-04T01:09:03.306Z,1005.77
2022-09-04T01:09:43.781Z,1005.78
2022-09-04T01:10:24.230Z,1005.77
2022-09-04T01:11:04.691Z,1005.77
2022-09-04T01:11:45.159Z,1005.77
2022-09-04T01:12:25.640Z,1005.74
2022-09-04T01:13:06.141Z,1005.75
2022-09-04T01:13:46.633Z,1005.75
2022-09-04T01:14:27.130Z,1005.74
2022-09-04T01:15:07.662Z,1005.75
2022-09-04T01:15:48.599Z,1005.79
2022-09-04T01:16:29.041Z,1005.76
2022-09-04T01:17:09.503Z,1005.78
2022-09-04T01:17:50.018Z,1005.79
2022-09-04T01:18:30.567Z,1005.81
2022-09-04T01:19:11.080Z,1005.78
2022-09-04T01:19:51.565Z,1005.81
2022-09-04T01:20:32.050Z,1005.81
2022-09-04T01:21:12.530Z,1005.84
2022-09-04T01:21:53.023Z,1005.84
2022-09-04T01:22:33.472Z,1005.85
2022-09-04T01:23:13.957Z,1005.85
2022-09-04T01:23:54.466Z,1005.87
2022-09-04T01:24:34.948Z,1005.86
2022-09-04T01:25:15.439Z,1005.84
2022-09-04T01:25:55.949Z,1005.87
2022-09-04T01:26:36.408Z,1005.88
2022-09-04T01:27:16.924Z,1005.89
2022-09-04T01:27:57.384Z,1005.88
2022-09-04T01:28:37.864Z,1005.88
2022-09-04T01:29:18.342Z,1005.88
2022-09-04T01:29:58.940Z,1005.89
2022-09-04T01:30:39.321Z,1005.88
2022-09-04T01:31:19.852Z,1005.91
2022-09-04T01:32:00.558Z,1005.9
2022-09-04T01:32:41.006Z,1005.89
2022-09-04T01:33:21.504Z,1005.87
2022-09-04T01:34:01.983Z,1005.88
2022-09-04T01:37:00.569Z,1005.92
2022-09-04T01:37:41.036Z,1005.92
2022-09-04T01:38:21.501Z,1005.95
2022-09-04T01:39:02.018Z,1005.94
2022-09-04T01:39:42.528Z,1005.95
2022-09-04T01:40:22.927Z,1005.96
2022-09-04T01:41:03.383Z,1005.91
2022-09-04T01:41:43.846Z,1005.94
2022-09-04T01:42:24.328Z,1005.95
2022-09-04T01:43:04.806Z,1005.94
2022-09-04T01:43:45.292Z,1006
2022-09-04T01:44:25.799Z,1005.96
2022-09-04T01:45:06.262Z,1006
2022-09-04T01:45:46.762Z,1006.02
2022-09-04T01:46:27.210Z,1006.01
2022-09-04T01:47:07.686Z,1006.04
2022-09-04T01:47:48.162Z,1006.03
2022-09-04T01:48:28.636Z,1006
2022-09-04T01:49:09.139Z,1006.03
2022-09-04T01:49:49.648Z,1006.04
2022-09-04T01:50:30.147Z,1006.07
2022-09-04T01:51:10.567Z,1006.07
2022-09-04T01:51:51.090Z,1006.06
2022-09-04T01:52:31.578Z,1006.09
2022-09-04T01:53:12.067Z,1006.07
2022-09-04T01:53:52.535Z,1006.05
2022-09-04T01:54:33.041Z,1006.05
2022-09-04T01:55:13.503Z,1006.07
2022-09-04T01:55:54.129Z,1006.05
2022-09-04T01:56:34.422Z,1006.07
2022-09-04T01:57:14.921Z,1006.05
2022-09-04T01:57:55.403Z,1006.07
2022-09-04T01:58:35.964Z,1006.05
2022-09-04T01:59:16.395Z,1006.04
2022-09-04T01:59:56.874Z,1006.04
2022-09-04T02:00:37.833Z,1006.01
2022-09-04T02:01:21.106Z,1006.03
2022-09-04T02:01:58.507Z,1006.05
2022-09-04T02:02:38.916Z,1006.06
2022-09-04T02:03:19.405Z,1006.05
2022-09-04T02:03:59.907Z,1006.05
2022-09-04T02:04:40.362Z,1006.06
2022-09-04T02:05:20.821Z,1006.05
2022-09-04T02:06:01.310Z,1006.08
2022-09-04T02:06:41.827Z,1006.07
2022-09-04T02:07:22.322Z,1006.07
2022-09-04T02:08:02.810Z,1006.1
2022-09-04T02:08:43.321Z,1006.09
2022-09-04T02:09:23.829Z,1006.06
2022-09-04T02:10:04.325Z,1006.08
2022-09-04T02:10:44.739Z,1006.07
2022-09-04T02:11:27.751Z,1006.12
2022-09-04T02:12:07.138Z,1006.09
2022-09-04T02:12:46.123Z,1006.11
2022-09-04T02:13:26.582Z,1006.09
2022-09-04T02:14:07.062Z,1006.1
2022-09-04T02:14:47.563Z,1006.1
2022-09-04T02:15:28.020Z,1006.1
2022-09-04T02:16:08.521Z,1006.12
2022-09-04T02:16:49.040Z,1006.1
2022-09-04T02:17:29.428Z,1006.13
2022-09-04T02:18:09.918Z,1006.15
2022-09-04T02:18:50.423Z,1006.17
2022-09-04T02:20:11.316Z,1006.12
2022-09-04T02:23:24.937Z,1006.16
2022-09-04T02:24:05.754Z,1006.14
2022-09-04T02:24:46.116Z,1006.13
2022-09-04T02:25:26.562Z,1006.14
2022-09-04T02:26:07.007Z,1006.15
2022-09-04T02:26:47.492Z,1006.17
2022-09-04T02:27:27.974Z,1006.18
2022-09-04T02:28:08.419Z,1006.16
2022-09-04T02:28:48.909Z,1006.18
2022-09-04T02:29:29.391Z,1006.19
2022-09-04T02:30:09.925Z,1006.2
2022-09-04T02:30:51.046Z,1006.15
2022-09-04T02:31:30.929Z,1006.19
2022-09-04T02:32:11.339Z,1006.19
2022-09-04T02:32:51.796Z,1006.19
2022-09-04T02:33:32.309Z,1006.22
2022-09-04T02:34:12.744Z,1006.21
2022-09-04T02:35:33.710Z,1006.2
2022-09-04T02:36:14.171Z,1006.21
2022-09-04T02:36:54.647Z,1006.22
2022-09-04T02:37:35.182Z,1006.19
2022-09-04T02:38:15.603Z,1006.23
2022-09-04T02:38:56.147Z,1006.25
2022-09-04T02:39:36.636Z,1006.24
2022-09-04T02:40:17.079Z,1006.19
2022-09-04T02:40:57.588Z,1006.25
2022-09-04T02:41:38.094Z,1006.24
2022-09-04T02:42:18.571Z,1006.24
2022-09-04T02:42:59.045Z,1006.27
2022-09-04T02:43:39.554Z,1006.28
2022-09-04T02:44:20.009Z,1006.28
2022-09-04T02:45:00.520Z,1006.27
2022-09-04T02:45:41.019Z,1006.3
2022-09-04T02:46:21.512Z,1006.27
2022-09-04T02:47:01.967Z,1006.32
2022-09-04T02:47:42.397Z,1006.31
2022-09-04T02:48:22.930Z,1006.31
2022-09-04T02:49:03.317Z,1006.34
2022-09-04T02:49:43.822Z,1006.32
2022-09-04T02:50:24.294Z,1006.31
2022-09-04T02:51:04.749Z,1006.33
2022-09-04T02:51:45.253Z,1006.31
2022-09-04T02:52:25.744Z,1006.3
2022-09-04T02:53:06.290Z,1006.31
2022-09-04T02:53:46.713Z,1006.31
2022-09-04T02:54:27.180Z,1006.32
2022-09-04T02:55:07.662Z,1006.31
2022-09-04T02:55:48.145Z,1006.34
2022-09-04T02:56:28.629Z,1006.34
2022-09-04T02:57:09.106Z,1006.32
2022-09-04T02:57:49.569Z,1006.33
2022-09-04T02:58:30.047Z,1006.31
2022-09-04T02:59:10.518Z,1006.32
2022-09-04T02:59:51.034Z,1006.33
2022-09-04T03:00:31.556Z,1006.3
2022-09-04T03:01:12.044Z,1006.33
2022-09-04T03:01:52.495Z,1006.32
2022-09-04T03:02:32.967Z,1006.29
2022-09-04T03:03:13.362Z,1006.3
2022-09-04T03:03:53.834Z,1006.3
2022-09-04T03:04:34.306Z,1006.29
2022-09-04T03:05:14.757Z,1006.28
2022-09-04T03:05:55.197Z,1006.29
2022-09-04T03:06:35.663Z,1006.27
2022-09-04T03:07:16.132Z,1006.28
2022-09-04T03:07:56.642Z,1006.29
2022-09-04T03:08:37.123Z,1006.31
2022-09-04T03:09:58.084Z,1006.31
2022-09-04T03:10:38.569Z,1006.27
2022-09-04T03:11:19.035Z,1006.3
2022-09-04T03:12:40.034Z,1006.31
2022-09-04T03:13:20.524Z,1006.3
2022-09-04T03:14:00.998Z,1006.3
2022-09-04T03:14:42.242Z,1006.29
2022-09-04T03:15:22.723Z,1006.3
2022-09-04T03:16:03.231Z,1006.28
2022-09-04T03:16:43.723Z,1006.31
2022-09-04T03:17:24.168Z,1006.31
2022-09-04T03:18:04.634Z,1006.3
2022-09-04T03:18:45.149Z,1006.29
2022-09-04T03:19:25.629Z,1006.3
2022-09-04T03:20:06.078Z,1006.31
2022-09-04T03:20:46.544Z,1006.32
2022-09-04T03:21:27.011Z,1006.3
2022-09-04T03:22:07.468Z,1006.29
2022-09-04T03:22:47.964Z,1006.32
2022-09-04T03:23:28.402Z,1006.32
2022-09-04T03:24:08.901Z,1006.31
2022-09-04T03:24:49.351Z,1006.34
2022-09-04T03:25:29.844Z,1006.38
2022-09-04T03:26:10.374Z,1006.36
2022-09-04T03:26:50.836Z,1006.36
2022-09-04T03:27:31.320Z,1006.35
2022-09-04T03:28:11.800Z,1006.39
2022-09-04T03:28:52.290Z,1006.37
2022-09-04T03:29:32.740Z,1006.37
2022-09-04T03:30:13.246Z,1006.37
2022-09-04T03:30:53.730Z,1006.37
2022-09-04T03:31:34.291Z,1006.37
2022-09-04T03:32:16.662Z,1006.37
2022-09-04T03:32:55.136Z,1006.4
2022-09-04T03:33:35.593Z,1006.37
2022-09-04T03:34:16.104Z,1006.36
2022-09-04T03:34:56.603Z,1006.42
2022-09-04T03:35:37.082Z,1006.4
2022-09-04T03:36:17.534Z,1006.43
2022-09-04T03:36:58.010Z,1006.45
2022-09-04T03:37:38.477Z,1006.43
2022-09-04T03:38:19.009Z,1006.44
2022-09-04T03:38:59.444Z,1006.44
2022-09-04T03:39:39.961Z,1006.44
2022-09-04T03:40:20.402Z,1006.4
2022-09-04T03:41:00.856Z,1006.43
2022-09-04T03:41:41.346Z,1006.45
2022-09-04T03:42:21.809Z,1006.46
2022-09-04T03:43:02.316Z,1006.45
2022-09-04T03:43:42.771Z,1006.42
2022-09-04T03:44:23.263Z,1006.43
2022-09-04T03:45:03.762Z,1006.43
2022-09-04T03:45:44.239Z,1006.42
2022-09-04T03:46:24.778Z,1006.45
2022-09-04T03:47:05.157Z,1006.52
2022-09-04T03:47:45.624Z,1006.48
2022-09-04T03:48:26.232Z,1006.45
2022-09-04T03:49:06.583Z,1006.46
2022-09-04T03:49:47.096Z,1006.48
2022-09-04T03:50:27.558Z,1006.48
2022-09-04T03:51:48.542Z,1006.48
2022-09-04T03:52:28.967Z,1006.48
2022-09-04T03:53:09.422Z,1006.49
2022-09-04T03:53:49.948Z,1006.5
2022-09-04T03:54:30.434Z,1006.49
2022-09-04T03:55:10.885Z,1006.52
2022-09-04T03:55:51.306Z,1006.51
2022-09-04T03:56:31.782Z,1006.48
2022-09-04T03:57:12.253Z,1006.48
2022-09-04T03:57:52.744Z,1006.53
2022-09-04T03:58:33.207Z,1006.54
2022-09-04T03:59:13.651Z,1006.53
2022-09-04T03:59:54.139Z,1006.51
2022-09-04T04:00:34.682Z,1006.48
2022-09-04T04:01:15.217Z,1006.52
2022-09-04T04:01:55.631Z,1006.51
2022-09-04T04:02:36.207Z,1006.52
2022-09-04T04:03:16.641Z,1006.53
2022-09-04T04:03:57.143Z,1006.52
2022-09-04T04:04:37.570Z,1006.53
2022-09-04T04:05:18.012Z,1006.53
2022-09-04T04:05:58.542Z,1006.54
2022-09-04T04:06:39.003Z,1006.55
2022-09-04T04:07:19.487Z,1006.58
2022-09-04T04:07:59.923Z,1006.57
2022-09-04T04:08:40.386Z,1006.51
2022-09-04T04:09:20.844Z,1006.53
2022-09-04T04:10:01.310Z,1006.57
2022-09-04T04:10:41.786Z,1006.54
2022-09-04T04:11:22.231Z,1006.59
2022-09-04T04:12:02.720Z,1006.58
2022-09-04T04:12:43.185Z,1006.59
2022-09-04T04:13:23.689Z,1006.61
2022-09-04T04:14:04.177Z,1006.6
2022-09-04T04:14:44.654Z,1006.56
2022-09-04T04:15:25.165Z,1006.6
2022-09-04T04:16:05.681Z,1006.62
2022-09-04T04:16:47.920Z,1006.63
2022-09-04T04:17:26.589Z,1006.61
2022-09-04T04:18:47.470Z,1006.66
2022-09-04T04:19:27.968Z,1006.67
2022-09-04T04:20:08.450Z,1006.61
2022-09-04T04:20:48.936Z,1006.65
2022-09-04T04:21:29.386Z,1006.64
2022-09-04T04:22:09.909Z,1006.66
2022-09-04T04:22:50.307Z,1006.67
2022-09-04T04:23:30.796Z,1006.68
2022-09-04T04:24:11.268Z,1006.68
2022-09-04T04:24:51.722Z,1006.67
2022-09-04T04:25:32.183Z,1006.71
2022-09-04T04:26:12.679Z,1006.72
2022-09-04T04:26:54.882Z,1006.72
2022-09-04T04:27:34.479Z,1006.71
2022-09-04T04:28:14.988Z,1006.73
2022-09-04T04:28:55.445Z,1006.7
2022-09-04T04:29:35.938Z,1006.72
2022-09-04T04:30:16.644Z,1006.68
2022-09-04T04:30:56.957Z,1006.68
2022-09-04T04:31:37.453Z,1006.71
2022-09-04T04:32:18.024Z,1006.7
2022-09-04T04:32:58.586Z,1006.7
2022-09-04T04:33:39.040Z,1006.7
2022-09-04T04:34:19.525Z,1006.71
2022-09-04T04:34:59.986Z,1006.75
2022-09-04T04:35:40.461Z,1006.74
2022-09-04T04:36:20.923Z,1006.76
2022-09-04T04:37:01.411Z,1006.77
2022-09-04T04:37:41.903Z,1006.8
2022-09-04T04:38:22.410Z,1006.81
2022-09-04T04:39:02.837Z,1006.82
2022-09-04T04:39:43.357Z,1006.84
2022-09-04T04:40:23.834Z,1006.88
2022-09-04T04:41:04.260Z,1006.86
2022-09-04T04:41:44.762Z,1006.83
2022-09-04T04:42:25.218Z,1006.88
2022-09-04T04:43:05.709Z,1006.86
2022-09-04T04:43:46.158Z,1006.85
2022-09-04T04:44:26.688Z,1006.87
2022-09-04T04:45:07.164Z,1006.91
2022-09-04T04:45:47.835Z,1006.91
2022-09-04T04:46:28.213Z,1006.93
2022-09-04T04:47:08.629Z,1006.88
2022-09-04T04:47:49.093Z,1006.89
2022-09-04T04:48:29.547Z,1006.9
2022-09-04T04:49:10.030Z,1006.89
2022-09-04T04:49:50.538Z,1006.92
2022-09-04T04:50:30.996Z,1006.89
2022-09-04T04:51:11.445Z,1006.89
2022-09-04T04:51:51.962Z,1006.92
2022-09-04T04:52:32.418Z,1006.95
2022-09-04T04:53:12.939Z,1006.95
2022-09-04T04:53:54.071Z,1006.94
2022-09-04T04:54:34.659Z,1006.94
2022-09-04T04:55:15.124Z,1006.92
2022-09-04T04:56:36.085Z,1006.97
2022-09-04T04:57:16.572Z,1006.98
2022-09-04T04:57:57.078Z,1006.96
2022-09-04T04:59:18.058Z,1007.01
2022-09-04T04:59:58.524Z,1007
2022-09-04T05:00:38.976Z,1007.01
2022-09-04T05:01:19.474Z,1007.02
2022-09-04T05:02:00.064Z,1007.03
2022-09-04T05:02:40.501Z,1007.06
2022-09-04T05:03:20.895Z,1007.08
2022-09-04T05:04:01.364Z,1007.04
2022-09-04T05:04:41.818Z,1007.07
2022-09-04T05:05:22.308Z,1007.09
2022-09-04T05:06:02.795Z,1007.1
2022-09-04T05:06:43.267Z,1007.11
2022-09-04T05:07:23.746Z,1007.11
2022-09-04T05:08:08.146Z,1007.13
2022-09-04T05:08:44.713Z,1007.16
2022-09-04T05:09:25.202Z,1007.19
2022-09-04T05:10:06.539Z,1007.21
2022-09-04T05:10:47.014Z,1007.22
2022-09-04T05:11:27.509Z,1007.21
2022-09-04T05:12:07.978Z,1007.22
2022-09-04T05:12:48.446Z,1007.24
2022-09-04T05:16:10.124Z,1007.33
2022-09-04T05:16:42.652Z,1007.31
2022-09-04T05:17:23.069Z,1007.34
2022-09-04T05:18:03.544Z,1007.36
2022-09-04T05:18:44.041Z,1007.29
2022-09-04T05:19:24.519Z,1007.33
2022-09-04T05:20:04.967Z,1007.34
2022-09-04T05:20:45.450Z,1007.33
2022-09-04T05:21:25.900Z,1007.31
2022-09-04T05:22:06.360Z,1007.33
2022-09-04T05:22:46.847Z,1007.4
2022-09-04T05:23:28.537Z,1007.36
2022-09-04T05:24:07.783Z,1007.35
2022-09-04T05:24:48.355Z,1007.38
2022-09-04T05:25:28.745Z,1007.4
2022-09-04T05:26:09.190Z,1007.43
2022-09-04T05:26:49.632Z,1007.41
2022-09-04T05:27:30.070Z,1007.46
2022-09-04T05:28:10.551Z,1007.46
2022-09-04T05:28:50.996Z,1007.47
2022-09-04T05:29:32.625Z,1007.49
2022-09-04T05:30:11.935Z,1007.48
2022-09-04T05:30:52.484Z,1007.48
2022-09-04T05:31:32.925Z,1007.45
2022-09-04T05:32:13.343Z,1007.52
2022-09-04T05:32:53.804Z,1007.52
2022-09-04T05:33:34.294Z,1007.55
2022-09-04T05:34:14.765Z,1007.52
2022-09-04T05:34:55.241Z,1007.53
2022-09-04T05:35:35.839Z,1007.53
2022-09-04T05:38:49.386Z,1007.57
2022-09-04T05:39:29.911Z,1007.54
2022-09-04T05:40:10.317Z,1007.59
2022-09-04T05:40:50.809Z,1007.61
2022-09-04T05:41:31.316Z,1007.64
2022-09-04T05:42:11.719Z,1007.65
2022-09-04T05:42:52.271Z,1007.64
2022-09-04T05:43:32.678Z,1007.68
2022-09-04T05:44:13.151Z,1007.7
2022-09-04T05:44:53.598Z,1007.68
2022-09-04T05:45:34.050Z,1007.7
2022-09-04T05:46:14.547Z,1007.72
2022-09-04T05:46:54.972Z,1007.74
2022-09-04T05:47:35.430Z,1007.72
2022-09-04T05:48:15.944Z,1007.77
2022-09-04T05:49:36.874Z,1007.79
2022-09-04T05:50:17.319Z,1007.84
2022-09-04T05:50:57.913Z,1007.83
2022-09-04T05:51:38.310Z,1007.87
2022-09-04T05:52:18.794Z,1007.91
2022-09-04T05:52:59.267Z,1007.91
2022-09-04T05:53:39.763Z,1007.89
2022-09-04T06:32:08.717Z,1008.17
2022-09-04T06:32:49.412Z,1008.19
2022-09-04T06:33:29.731Z,1008.17
2022-09-04T06:34:10.227Z,1008.22
2022-09-04T06:34:50.742Z,1008.25
2022-09-04T06:35:31.261Z,1008.29
2022-09-04T06:36:11.774Z,1008.26
2022-09-04T06:36:52.232Z,1008.28
2022-09-04T06:37:32.757Z,1008.29
2022-09-04T06:38:13.266Z,1008.3
2022-09-04T06:38:53.771Z,1008.32
2022-09-04T06:39:34.281Z,1008.29
2022-09-04T06:40:14.755Z,1008.32
2022-09-04T06:40:55.248Z,1008.31
2022-09-04T06:41:35.689Z,1008.39
2022-09-04T06:42:16.212Z,1008.35
2022-09-04T06:42:56.700Z,1008.39
2022-09-04T06:43:37.949Z,1008.38
2022-09-04T06:44:17.713Z,1008.38
2022-09-04T06:44:58.248Z,1008.4
2022-09-04T06:45:38.741Z,1008.4
2022-09-04T06:46:19.261Z,1008.43
2022-09-04T06:46:59.715Z,1008.45
2022-09-04T06:47:40.189Z,1008.45
2022-09-04T06:48:20.694Z,1008.46
2022-09-04T06:49:01.161Z,1008.47
2022-09-04T06:49:41.667Z,1008.45
2022-09-04T06:50:22.128Z,1008.51
2022-09-04T06:51:02.594Z,1008.44
2022-09-04T06:51:43.093Z,1008.42
2022-09-04T06:52:23.566Z,1008.45
2022-09-04T06:53:04.483Z,1008.46
2022-09-04T06:53:44.564Z,1008.42
2022-09-04T06:54:25.054Z,1008.45
2022-09-04T06:55:05.557Z,1008.41
2022-09-04T06:55:46.038Z,1008.39
2022-09-04T06:56:26.512Z,1008.44
2022-09-04T06:57:06.994Z,1008.46
2022-09-04T06:57:47.506Z,1008.45
2022-09-04T06:58:28.093Z,1008.5
2022-09-04T06:59:08.580Z,1008.47
2022-09-04T06:59:49.050Z,1008.48
2022-09-04T07:00:29.530Z,1008.49
2022-09-04T07:01:10.088Z,1008.45
2022-09-04T07:01:50.638Z,1008.45
2022-09-04T07:02:31.111Z,1008.46
2022-09-04T07:03:11.507Z,1008.45
2022-09-04T07:03:52.059Z,1008.48
2022-09-04T07:04:32.566Z,1008.44
2022-09-04T07:05:13.048Z,1008.48
2022-09-04T07:05:53.575Z,1008.48
2022-09-04T07:06:34.057Z,1008.48
2022-09-04T07:07:14.501Z,1008.47
2022-09-04T07:07:55.042Z,1008.52
2022-09-04T07:08:35.539Z,1008.52
2022-09-04T07:09:16.040Z,1008.47
2022-09-04T07:09:59.974Z,1008.5
2022-09-04T07:10:37.019Z,1008.51
2022-09-04T07:11:17.529Z,1008.51
2022-09-04T07:11:58.051Z,1008.53
2022-09-04T07:12:38.530Z,1008.51
2022-09-04T07:13:18.994Z,1008.5
2022-09-04T07:13:59.477Z,1008.55
2022-09-04T07:14:39.948Z,1008.52
2022-09-04T07:15:20.402Z,1008.49
2022-09-04T07:16:00.950Z,1008.53
2022-09-04T07:16:41.418Z,1008.53
2022-09-04T07:17:21.939Z,1008.53
2022-09-04T07:18:02.428Z,1008.57
2022-09-04T07:19:23.486Z,1008.55
2022-09-04T07:20:03.927Z,1008.58
2022-09-04T07:20:44.398Z,1008.6
2022-09-04T07:21:24.857Z,1008.61
2022-09-04T07:22:05.344Z,1008.63
2022-09-04T07:22:45.826Z,1008.58
2022-09-04T07:23:26.367Z,1008.62
2022-09-04T07:24:06.873Z,1008.61
2022-09-04T07:27:05.611Z,1008.67
2022-09-04T07:27:46.282Z,1008.68
2022-09-04T07:28:26.827Z,1008.69
2022-09-04T07:29:07.330Z,1008.74
2022-09-04T07:29:47.833Z,1008.72
2022-09-04T07:30:28.320Z,1008.69
2022-09-04T07:31:08.875Z,1008.74
2022-09-04T07:31:49.383Z,1008.72
2022-09-04T07:32:29.832Z,1008.73
2022-09-04T07:33:10.423Z,1008.73
2022-09-04T07:33:50.845Z,1008.77
2022-09-04T07:34:31.336Z,1008.75
2022-09-04T07:35:11.865Z,1008.76
2022-09-04T07:35:52.352Z,1008.75
2022-09-04T07:36:32.909Z,1008.75
2022-09-04T07:37:13.365Z,1008.81
2022-09-04T07:37:53.927Z,1008.74
2022-09-04T07:38:34.438Z,1008.8
2022-09-04T07:39:14.998Z,1008.79
2022-09-04T07:39:55.496Z,1008.78
2022-09-04T07:40:37.000Z,1008.8
2022-09-04T07:41:16.872Z,1008.8
2022-09-04T07:41:56.940Z,1008.82
2022-09-04T07:42:37.533Z,1008.85
2022-09-04T07:43:18.006Z,1008.8
2022-09-04T07:43:58.512Z,1008.81
2022-09-04T07:44:39.020Z,1008.82
2022-09-04T07:45:19.528Z,1008.84
2022-09-04T07:45:59.971Z,1008.81
2022-09-04T07:46:40.517Z,1008.83
2022-09-04T07:47:20.956Z,1008.82
2022-09-04T07:48:01.497Z,1008.79
2022-09-04T07:48:41.986Z,1008.84
2022-09-04T07:49:22.466Z,1008.84
2022-09-04T07:50:02.952Z,1008.84
2022-09-04T07:50:43.510Z,1008.83
2022-09-04T07:51:24.006Z,1008.84
2022-09-04T07:52:04.516Z,1008.84
2022-09-04T07:52:45.040Z,1008.88
2022-09-04T07:53:25.531Z,1008.85
2022-09-04T07:54:06.073Z,1008.89
2022-09-04T07:54:46.604Z,1008.91
2022-09-04T07:55:27.100Z,1008.88
2022-09-04T07:56:07.624Z,1008.91
2022-09-04T07:56:48.165Z,1008.91
2022-09-04T07:57:28.602Z,1008.91
2022-09-04T07:58:09.148Z,1008.93
2022-09-04T07:58:49.635Z,1008.89
2022-09-04T07:59:30.133Z,1008.89
2022-09-04T08:00:10.632Z,1008.9
2022-09-04T08:00:51.126Z,1008.89
2022-09-04T08:01:31.693Z,1008.95
2022-09-04T08:02:12.134Z,1008.94
2022-09-04T08:02:52.650Z,1008.91
2022-09-04T08:03:33.151Z,1008.97
2022-09-04T08:04:13.625Z,1008.96
2022-09-04T08:04:54.177Z,1008.95
2022-09-04T08:05:34.582Z,1008.9
2022-09-04T08:06:15.059Z,1008.93
2022-09-04T08:06:55.543Z,1008.92
2022-09-04T08:07:36.032Z,1008.94
2022-09-04T08:08:16.554Z,1008.95
2022-09-04T08:08:57.058Z,1008.94
2022-09-04T08:09:37.594Z,1008.97
2022-09-04T08:10:18.055Z,1008.95
2022-09-04T08:10:58.521Z,1008.98
2022-09-04T08:11:39.035Z,1008.96
2022-09-04T08:12:19.544Z,1008.97
2022-09-04T08:13:00.067Z,1008.98
2022-09-04T08:13:40.563Z,1008.99
2022-09-04T08:14:21.065Z,1009.02
2022-09-04T08:15:01.496Z,1009.02
2022-09-04T08:15:42.822Z,1009.04
2022-09-04T08:18:40.600Z,1009.08
2022-09-04T08:19:21.112Z,1009.08
2022-09-04T08:20:01.574Z,1009.11
2022-09-04T08:20:42.091Z,1009.11
2022-09-04T08:21:22.591Z,1009.1
2022-09-04T08:22:03.069Z,1009.09
2022-09-04T08:22:43.587Z,1009.11
2022-09-04T08:23:24.078Z,1009.12
2022-09-04T08:24:04.619Z,1009.08
2022-09-04T08:24:45.133Z,1009.13
2022-09-04T08:25:25.658Z,1009.11
2022-09-04T08:26:06.190Z,1009.13
2022-09-04T08:26:46.649Z,1009.09
2022-09-04T08:27:27.148Z,1009.09
2022-09-04T08:28:07.626Z,1009.13
2022-09-04T08:28:48.091Z,1009.15
2022-09-04T08:29:28.622Z,1009.14
2022-09-04T08:30:09.133Z,1009.12
2022-09-04T08:30:49.660Z,1009.1
2022-09-04T08:31:30.195Z,1009.1
2022-09-04T08:32:10.629Z,1009.16
2022-09-04T08:32:51.056Z,1009.11
2022-09-04T08:33:31.586Z,1009.11
2022-09-04T08:34:12.105Z,1009.13
2022-09-04T08:35:33.085Z,1009.16
2022-09-04T08:36:13.589Z,1009.17
2022-09-04T08:36:54.085Z,1009.15
2022-09-04T08:38:15.070Z,1009.19
2022-09-04T08:38:55.605Z,1009.17
2022-09-04T08:39:36.075Z,1009.2
2022-09-04T08:40:16.552Z,1009.19
2022-09-04T08:40:57.073Z,1009.18
2022-09-04T08:41:37.560Z,1009.18
2022-09-04T08:42:18.051Z,1009.18
2022-09-04T08:42:58.519Z,1009.2
2022-09-04T08:44:19.509Z,1009.2
2022-09-04T08:45:00.003Z,1009.22
2022-09-04T08:45:42.249Z,1009.2
2022-09-04T08:46:21.032Z,1009.23
2022-09-04T08:47:01.513Z,1009.21
2022-09-04T08:47:41.958Z,1009.21
2022-09-04T08:48:22.490Z,1009.22
2022-09-04T08:49:02.994Z,1009.23
2022-09-04T08:49:43.466Z,1009.21
2022-09-04T08:50:24.059Z,1009.24
2022-09-04T08:51:04.547Z,1009.27
2022-09-04T08:51:45.003Z,1009.25
2022-09-04T08:52:25.515Z,1009.27
2022-09-04T08:53:05.974Z,1009.28
2022-09-04T08:53:46.452Z,1009.27
2022-09-04T08:54:26.967Z,1009.32
2022-09-04T08:55:07.438Z,1009.24
2022-09-04T08:56:28.449Z,1009.27
2022-09-04T08:57:08.937Z,1009.3
2022-09-04T08:57:49.418Z,1009.34
2022-09-04T08:58:29.949Z,1009.31
2022-09-04T08:59:10.446Z,1009.28
2022-09-04T08:59:50.955Z,1009.3
2022-09-04T09:00:31.457Z,1009.28
2022-09-04T09:01:11.972Z,1009.29
2022-09-04T09:02:33.014Z,1009.29
2022-09-04T09:03:13.459Z,1009.31
2022-09-04T09:03:53.962Z,1009.31
2022-09-04T09:04:34.432Z,1009.32
2022-09-04T09:05:14.927Z,1009.3
2022-09-04T09:05:55.385Z,1009.31
2022-09-04T09:06:35.939Z,1009.32
2022-09-04T09:07:16.383Z,1009.3
2022-09-04T09:07:56.866Z,1009.3
2022-09-04T09:08:37.376Z,1009.32
2022-09-04T09:09:19.052Z,1009.31
2022-09-04T09:10:00.816Z,1009.34
2022-09-04T09:10:41.176Z,1009.35
2022-09-04T09:11:22.225Z,1009.36
2022-09-04T09:12:03.215Z,1009.33
2022-09-04T09:12:44.149Z,1009.34
2022-09-04T09:13:25.710Z,1009.31
2022-09-04T09:14:06.196Z,1009.31
2022-09-04T09:14:47.061Z,1009.3
2022-09-04T09:15:27.621Z,1009.31
2022-09-04T09:16:08.062Z,1009.29
2022-09-04T09:16:48.814Z,1009.28
2022-09-04T09:17:34.290Z,1009.29
2022-09-04T09:18:11.333Z,1009.3
2022-09-04T09:18:52.961Z,1009.23
2022-09-04T09:19:33.778Z,1009.24
2022-09-04T09:22:50.549Z,1009.26
2022-09-04T09:23:32.580Z,1009.25
2022-09-04T09:24:15.067Z,1009.28
2022-09-04T09:24:56.803Z,1009.26
2022-09-04T09:25:42.200Z,1009.25
2022-09-04T09:26:21.058Z,1009.23
2022-09-04T09:27:03.163Z,1009.28
2022-09-04T09:27:45.078Z,1009.22
2022-09-04T09:29:07.964Z,1009.25
2022-09-04T09:29:49.000Z,1009.23
2022-09-04T09:30:30.276Z,1009.26
2022-09-04T09:31:12.402Z,1009.29
2022-09-04T09:31:55.464Z,1009.28
2022-09-04T09:32:36.151Z,1009.24
2022-09-04T09:33:18.117Z,1009.24
2022-09-04T09:33:59.168Z,1009.26
2022-09-04T09:37:15.974Z,1009.2
2022-09-04T09:37:58.274Z,1009.2
2022-09-04T09:38:38.140Z,1009.17
2022-09-04T09:39:19.855Z,1009.19
2022-09-04T09:40:01.498Z,1009.2
2022-09-04T09:40:44.791Z,1009.2
2022-09-04T09:41:27.070Z,1009.18
2022-09-04T09:42:08.084Z,1009.19
2022-09-04T09:42:48.387Z,1009.22
2022-09-04T09:43:29.321Z,1009.2
2022-09-04T09:44:10.539Z,1009.19
2022-09-04T09:44:55.079Z,1009.18
2022-09-04T09:45:37.051Z,1009.18
2022-09-04T09:46:18.724Z,1009.16
2022-09-04T09:46:59.912Z,1009.17
2022-09-04T09:47:40.369Z,1009.18
2022-09-04T09:48:20.861Z,1009.18
2022-09-04T09:49:01.415Z,1009.16
2022-09-04T09:49:41.922Z,1009.18
2022-09-04T09:50:22.413Z,1009.17
2022-09-04T09:51:02.925Z,1009.18
2022-09-04T09:51:43.380Z,1009.18